Current Weather

Central Park

Central Park, New York (KNYC)

Report from: Wednesday, May 29, 2024 2:51 AM EDT
Current time: Wednesday, May 29, 2024 3:52 AM EDT

Nearby weather – Weather history – Daily summaries
Weather forecast

Temperature17.2°C (63.0°F)
Dew point12.8°C (55.0°F)
Winds Calm
Visibility10 mi. (16.1 km)
Clouds Sky clear
Altimeter29.89 in.Hg (1012 mB)
Relative humidity75 %
Density altitude531 ft. (162 m)
Sea-level pressure101.1 kPa (1011 mB, 29.86 in.Hg)
Remarks Fully automated report
System requires maintenance
Automated weather observing station with precipitation discriminator
Flight conditions Visual Meteorological Conditions
Raw dataKNYC 290651Z AUTO 00000KT 10SM CLR 17/13 A2989 RMK AO2 SLP113 T01720128 $
An error has occurred. This application may no longer respond until reloaded. Reload 🗙